Fort Lauderdale, FL (33308)

5:28 PM EDT on August 02, 2015 (GMT -0400)
Victoria Park | | Change Station
CLOSE
Current Station
Personal Weather Station
Location: Fort Lauderdale, FL
Elevation: 30 ft
Nearby Weather Stations

Elev 30 ft 26.13 °N, 80.13 °W | Updated 8 minutes ago

Mostly Cloudy
Mostly Cloudy
92.5 °F
Feels Like 112 °F
N
1.1
Wind Variable Wind from ESE

Today
High -- | Low -- °F
--% Chance of Precip.
Yesterday
High -- | Low -- °F
Precip. -- in
6:46 AM 8:06 PM
Waning Gibbous, 92% visible
Pressure 29.97 in
Visibility 10.0 miles
Clouds Clear
Heat Index 112 °F
Dew Point 80 °F
Humidity 68%
Rainfall 0.10 in
Snow Depth Not available.
UV 7 out of 12
Pollen 3.00 out of 12
Air Quality Not available.
Flu Activity Not available.
METAR KFXE 022053Z 13009KT 10SM CLR 31/24 A2996 RMK AO2 SLP147 60001 T03110239 55011

More Conditions Fewer Conditions

Pressure 29.97 in
Visibility 10.0 miles
Clouds Clear
Heat Index 112 °F
Dew Point 80 °F
Humidity 68%
Rainfall 0.10 in
Snow Depth Not available.
UV 7 out of 12
Pollen 3.00 out of 12
Air Quality Not available.
Flu Activity Not available.
METAR KFXE 022053Z 13009KT 10SM CLR 31/24 A2996 RMK AO2 SLP147 60001 T03110239 55011

More Conditions Fewer Conditions

Nowcast | as of 5:20 PM EDT on August 2, 2015

Scattered showers and thunderstorms will move north at 15 to 20 mph and affect parts of Southeast Florida into the early evening hours. While most of the stronger storms will be over The Everglades, additional showers and thunderstorms will move over the Metro areas mainly from northern Miami-Dade County through the Palm beaches. Gusty winds of 30 to 40 mph, occasional lightning and heavy rain can be expected with the stronger storms.

×

10-Day Weather Forecast

×

Almanac

Astronomy

Aug. 02, 2015 Rise Set
Actual Time
Civil Twilight
Nautical Twilight
Astronomical Twilight
Moon
Length of Visible Light
Length of Day
Tomorrow will be .
, % of the Moon is Illuminated

Today's Extremes

State Highs State Lows

Community

WunderPhotos

Upload Photos

1,843,366 photos uploaded!

WunderBlogs® & News

Nearby

Air Quality

  Air Quality AQ Index Pollutant
Not available.

Snow Depth

Station Depth Elevation

Earthquake Activity

City Distance Mag. Time & Date
Minimum magnitude displayed is 2.5.

Coastal Water Temperatures

Place Temperature

Stations

Nearby Weather Stations

Station Location Temp. Windchill Dew Point Humidity Wind Precip. Elev Updated Type